createdAt,value
2019-03-23T00:00:08.495Z,44.63
2019-03-23T00:02:37.725Z,44.35
2019-03-23T00:05:08.024Z,46.15
2019-03-23T00:07:36.813Z,45.45
2019-03-23T00:10:06.506Z,44.77
2019-03-23T00:12:35.263Z,44.88
2019-03-23T00:15:07.467Z,43.98
2019-03-23T00:17:36.345Z,47.50
2019-03-23T00:20:06.655Z,45.20
2019-03-23T00:22:36.242Z,45.90
2019-03-23T00:25:06.871Z,43.98
2019-03-23T00:27:35.690Z,45.98
2019-03-23T00:30:11.306Z,44.90
2019-03-23T00:32:40.135Z,44.90
2019-03-23T00:35:09.096Z,45.63
2019-03-23T00:37:37.858Z,43.73
2019-03-23T00:40:08.953Z,44.40
2019-03-23T00:42:37.709Z,46.63
2019-03-23T00:45:07.625Z,45.80
2019-03-23T00:47:36.486Z,46.30
2019-03-23T00:50:07.537Z,44.67
2019-03-23T00:52:36.338Z,47.00
2019-03-23T00:55:07.092Z,46.00
2019-03-23T00:57:36.167Z,43.15
2019-03-23T01:00:10.484Z,44.13
2019-03-23T01:02:41.742Z,45.25
2019-03-23T01:05:10.811Z,45.92
2019-03-23T01:07:39.652Z,45.83
2019-03-23T01:10:10.727Z,45.43
2019-03-23T01:12:39.854Z,45.33
2019-03-23T01:15:10.722Z,45.00
2019-03-23T01:17:39.562Z,45.92
2019-03-23T01:20:12.649Z,44.83
2019-03-23T01:22:41.393Z,46.23
2019-03-23T01:25:10.733Z,46.68
2019-03-23T01:27:39.513Z,47.48
2019-03-23T01:30:13.846Z,47.70
2019-03-23T01:32:42.689Z,45.58
2019-03-23T01:35:13.148Z,44.05
2019-03-23T01:37:41.954Z,48.83
2019-03-23T01:40:11.051Z,47.75
2019-03-23T01:42:39.924Z,47.73
2019-03-23T01:45:11.146Z,46.28
2019-03-23T01:47:39.936Z,45.60
2019-03-23T01:50:10.116Z,46.13
2019-03-23T01:52:38.915Z,44.25
2019-03-23T01:55:08.839Z,44.27
2019-03-23T01:57:37.714Z,44.63
2019-03-23T02:00:12.049Z,42.53
2019-03-23T02:02:40.866Z,44.08
2019-03-23T02:05:10.016Z,43.70
2019-03-23T02:07:38.825Z,43.70
2019-03-23T02:10:09.706Z,43.13
2019-03-23T02:12:38.537Z,45.92
2019-03-23T02:15:11.642Z,45.43
2019-03-23T02:17:40.401Z,43.20
2019-03-23T02:20:12.162Z,46.75
2019-03-23T02:22:41.172Z,46.75
2019-03-23T02:25:10.164Z,45.38
2019-03-23T02:27:38.949Z,45.63
2019-03-23T02:30:14.086Z,45.75
2019-03-23T02:32:42.841Z,44.80
2019-03-23T02:35:11.875Z,45.40
2019-03-23T02:37:40.737Z,46.85
2019-03-23T02:40:10.425Z,46.65
2019-03-23T02:42:39.642Z,45.65
2019-03-23T02:45:12.449Z,48.02
2019-03-23T02:47:41.226Z,46.08
2019-03-23T02:50:11.227Z,47.93
2019-03-23T02:52:40.061Z,51.45
2019-03-23T02:55:12.406Z,47.40
2019-03-23T02:57:41.213Z,46.42
2019-03-23T03:00:12.496Z,47.78
2019-03-23T03:02:41.350Z,47.88
2019-03-23T03:05:11.094Z,49.77
2019-03-23T03:07:42.659Z,46.75
2019-03-23T03:10:12.174Z,49.05
2019-03-23T03:12:40.999Z,48.15
2019-03-23T03:15:10.614Z,49.30
2019-03-23T03:17:58.839Z,51.20
2019-03-23T03:23:53.822Z,48.58
2019-03-23T03:26:41.675Z,49.15
2019-03-23T03:29:43.558Z,47.13
2019-03-23T03:32:18.993Z,49.77
2019-03-23T03:35:06.942Z,48.35
2019-03-23T03:37:57.229Z,47.67
2019-03-23T03:40:45.823Z,52.27
2019-03-23T04:37:03.496Z,40.58
2019-03-23T04:39:51.269Z,43.50
2019-03-23T04:54:24.883Z,40.55
2019-03-23T05:12:15.228Z,38.92
2019-03-23T05:17:54.397Z,38.83
2019-03-23T05:32:32.814Z,38.13
2019-03-23T05:35:13.641Z,39.00
2019-03-23T07:26:26.233Z,28.03
2019-03-23T07:35:17.919Z,28.00
2019-03-23T08:19:45.178Z,33.97
2019-03-23T08:37:41.898Z,36.47
2019-03-23T09:18:59.474Z,35.03
2019-03-23T09:21:27.960Z,36.90
2019-03-23T09:23:56.526Z,35.30
2019-03-23T09:26:25.164Z,34.37
2019-03-23T09:28:53.710Z,34.80
2019-03-23T09:31:22.295Z,32.77
2019-03-23T09:33:50.832Z,32.73
2019-03-23T09:36:22.895Z,35.70
2019-03-23T09:38:49.518Z,35.03
2019-03-23T09:41:18.107Z,34.07
2019-03-23T09:43:46.815Z,35.50
2019-03-23T09:46:17.010Z,33.67
2019-03-23T09:49:05.008Z,33.80
2019-03-23T09:51:33.582Z,33.67
2019-03-23T09:54:02.091Z,37.37
2019-03-23T09:56:30.635Z,38.90
2019-03-23T09:58:59.149Z,32.47
2019-03-23T10:01:27.788Z,34.57
2019-03-23T10:03:56.580Z,32.37
2019-03-23T10:06:25.178Z,31.50
2019-03-23T10:08:53.642Z,33.87
2019-03-23T10:11:22.176Z,33.80
2019-03-23T10:13:50.946Z,32.03
2019-03-23T10:16:19.405Z,33.07
2019-03-23T10:18:47.888Z,33.30
2019-03-23T10:21:18.177Z,31.77
2019-03-23T10:23:46.650Z,32.60
2019-03-23T10:26:21.321Z,34.83
2019-03-23T10:28:49.522Z,34.97
2019-03-23T10:31:18.113Z,35.40
2019-03-23T10:33:46.683Z,33.00
2019-03-23T10:36:16.094Z,33.27
2019-03-23T10:38:44.747Z,37.63
2019-03-23T10:41:13.375Z,35.20
2019-03-23T10:43:43.653Z,33.83
2019-03-23T10:46:12.416Z,38.73
2019-03-23T10:48:52.486Z,32.67
2019-03-23T10:51:21.506Z,32.20
2019-03-23T10:53:49.979Z,31.30
2019-03-23T10:56:18.572Z,29.77
2019-03-23T10:58:48.299Z,30.70
2019-03-23T11:01:17.389Z,33.83
2019-03-23T11:03:45.931Z,32.50
2019-03-23T11:06:14.547Z,32.00
2019-03-23T11:08:45.592Z,32.63
2019-03-23T11:11:18.359Z,35.27
2019-03-23T11:13:46.854Z,35.20
2019-03-23T11:16:15.333Z,50.53
2019-03-23T11:18:44.090Z,35.93
2019-03-23T11:21:12.616Z,35.47
2019-03-23T11:23:41.112Z,35.10
2019-03-23T11:26:09.586Z,36.97
2019-03-23T11:28:38.254Z,36.23
2019-03-23T11:31:06.733Z,37.97
2019-03-23T11:33:35.207Z,38.43
2019-03-23T11:36:03.738Z,36.40
2019-03-23T11:38:32.339Z,39.93
2019-03-23T11:41:00.820Z,38.20
2019-03-23T11:43:29.405Z,40.70
2019-03-23T11:45:57.864Z,41.10
2019-03-23T11:48:26.651Z,42.70
2019-03-23T11:50:55.249Z,41.33
2019-03-23T11:53:23.948Z,44.10
2019-03-23T11:55:52.488Z,43.30
2019-03-23T11:58:20.977Z,44.20
2019-03-23T12:00:49.444Z,43.20
2019-03-23T12:03:18.460Z,43.13
2019-03-23T12:05:46.987Z,43.47
2019-03-23T12:08:15.467Z,41.50
2019-03-23T12:10:43.940Z,41.50
2019-03-23T12:13:12.399Z,43.97
2019-03-23T12:15:41.275Z,41.77
2019-03-23T12:18:09.751Z,42.30
2019-03-23T12:20:38.226Z,41.07
2019-03-23T12:23:06.718Z,41.97
2019-03-23T12:25:35.193Z,39.73
2019-03-23T12:28:03.782Z,41.83
2019-03-23T12:30:32.401Z,43.90
2019-03-23T12:33:00.879Z,42.40
2019-03-23T12:35:29.340Z,43.23
2019-03-23T12:37:57.844Z,42.27
2019-03-23T12:40:26.370Z,44.33
2019-03-23T12:42:55.139Z,41.93
2019-03-23T12:45:23.710Z,41.57
2019-03-23T12:47:52.225Z,40.57
2019-03-23T12:50:20.725Z,40.93
2019-03-23T12:52:49.229Z,40.57
2019-03-23T12:55:17.783Z,42.60
2019-03-23T12:57:46.276Z,43.83
2019-03-23T13:00:16.838Z,41.17
2019-03-23T13:02:45.299Z,41.40
2019-03-23T13:05:13.961Z,41.47
2019-03-23T13:07:43.034Z,41.87
2019-03-23T13:10:13.099Z,40.20
2019-03-23T13:12:41.861Z,41.90
2019-03-23T13:15:12.064Z,40.90
2019-03-23T13:17:40.561Z,38.70
2019-03-23T13:20:10.553Z,40.23
2019-03-23T13:22:39.177Z,42.63
2019-03-23T13:25:09.195Z,42.40
2019-03-23T13:27:37.870Z,41.50
2019-03-23T13:30:09.562Z,41.10
2019-03-23T13:32:38.147Z,43.13
2019-03-23T13:35:07.406Z,41.77
2019-03-23T13:37:36.250Z,47.40
2019-03-23T13:40:07.523Z,39.10
2019-03-23T13:42:36.057Z,41.00
2019-03-23T13:45:06.114Z,39.40
2019-03-23T13:47:35.057Z,38.67
2019-03-23T13:50:04.996Z,40.17
2019-03-23T13:52:33.538Z,37.73
2019-03-23T13:55:02.040Z,36.13
2019-03-23T13:57:30.536Z,36.87
2019-03-23T13:59:59.145Z,38.43
2019-03-23T14:02:28.159Z,35.07
2019-03-23T14:04:56.861Z,33.07
2019-03-23T14:07:26.256Z,36.97
2019-03-23T14:09:55.205Z,35.70
2019-03-23T14:12:23.699Z,34.10
2019-03-23T14:14:54.071Z,35.67
2019-03-23T14:17:22.945Z,35.00
2019-03-23T14:19:51.750Z,33.40
2019-03-23T14:22:20.465Z,31.77
2019-03-23T14:24:49.073Z,32.90
2019-03-23T14:27:21.116Z,40.70
2019-03-23T14:29:50.598Z,32.20
2019-03-23T14:32:19.165Z,29.23
2019-03-23T14:34:48.120Z,30.27
2019-03-23T14:37:16.710Z,28.70
2019-03-23T14:39:45.229Z,30.57
2019-03-23T14:42:13.724Z,28.57
2019-03-23T14:44:42.249Z,26.63
2019-03-23T14:47:10.805Z,30.53
2019-03-23T14:49:39.362Z,31.10
2019-03-23T14:52:07.824Z,28.60
2019-03-23T14:54:36.393Z,29.30
2019-03-23T14:57:04.868Z,28.20
2019-03-23T14:59:33.796Z,27.73
2019-03-23T15:02:02.315Z,30.17
2019-03-23T15:04:30.780Z,31.00
2019-03-23T15:06:59.276Z,30.80
2019-03-23T15:09:27.771Z,31.50
2019-03-23T15:11:56.265Z,32.73
2019-03-23T15:14:24.805Z,28.90
2019-03-23T15:16:53.329Z,28.87
2019-03-23T15:19:21.914Z,33.30
2019-03-23T15:21:50.421Z,30.83
2019-03-23T15:24:18.960Z,33.57
2019-03-23T15:26:47.517Z,31.50
2019-03-23T15:29:16.031Z,34.00
2019-03-23T15:31:44.544Z,30.70
2019-03-23T15:34:13.114Z,32.77
2019-03-23T15:36:41.678Z,28.80
2019-03-23T15:39:10.422Z,31.07
2019-03-23T15:41:38.973Z,31.30
2019-03-23T15:44:07.534Z,31.53
2019-03-23T15:46:37.575Z,28.90
2019-03-23T15:49:06.421Z,31.37
2019-03-23T15:51:35.029Z,34.17
2019-03-23T15:54:03.524Z,32.57
2019-03-23T15:56:32.064Z,29.00
2019-03-23T15:59:00.583Z,29.73
2019-03-23T16:01:29.082Z,28.87
2019-03-23T16:03:57.606Z,28.37
2019-03-23T16:06:26.145Z,26.90
2019-03-23T16:08:54.696Z,25.97
2019-03-23T16:11:23.207Z,28.30
2019-03-23T16:13:51.807Z,27.07
2019-03-23T16:16:20.302Z,26.80
2019-03-23T16:18:49.143Z,28.57
2019-03-23T16:21:17.611Z,28.27
2019-03-23T16:23:47.765Z,26.50
2019-03-23T16:26:16.346Z,27.50
2019-03-23T16:28:44.884Z,26.70
2019-03-23T16:31:13.428Z,26.70
2019-03-23T16:33:41.924Z,25.00
2019-03-23T16:36:10.725Z,25.65
2019-03-23T16:38:39.575Z,25.00
2019-03-23T16:41:08.390Z,26.15
2019-03-23T16:43:37.233Z,25.90
2019-03-23T16:46:05.992Z,24.60
2019-03-23T16:48:34.777Z,23.05
2019-03-23T16:51:03.559Z,25.82
2019-03-23T16:53:33.408Z,25.55
2019-03-23T16:56:02.189Z,24.80
2019-03-23T16:58:31.035Z,24.40
2019-03-23T17:00:59.848Z,23.02
2019-03-23T17:03:31.225Z,23.13
2019-03-23T17:05:59.978Z,23.65
2019-03-23T17:08:31.463Z,23.95
2019-03-23T17:11:19.590Z,23.77
2019-03-23T17:13:48.369Z,23.05
2019-03-23T17:16:17.500Z,22.15
2019-03-23T17:18:48.784Z,21.97
2019-03-23T17:21:19.510Z,23.27
2019-03-23T17:23:49.004Z,21.90
2019-03-23T17:26:17.765Z,20.32
2019-03-23T17:28:46.559Z,19.17
2019-03-23T17:31:15.372Z,18.67
2019-03-23T17:33:44.194Z,19.73
2019-03-23T17:36:13.159Z,19.05
2019-03-23T17:38:42.001Z,18.12
2019-03-23T17:41:10.768Z,19.82
2019-03-23T17:43:40.845Z,19.27
2019-03-23T17:46:09.844Z,19.30
2019-03-23T17:48:38.634Z,19.52
2019-03-23T17:51:07.499Z,18.27
2019-03-23T17:53:37.695Z,17.42
2019-03-23T17:56:06.596Z,15.95
2019-03-23T17:58:35.358Z,16.90
2019-03-23T18:01:04.909Z,16.37
2019-03-23T18:03:33.791Z,17.48
2019-03-23T18:06:02.714Z,16.97
2019-03-23T18:08:31.550Z,17.65
2019-03-23T18:11:00.376Z,16.70
2019-03-23T18:13:29.169Z,14.85
2019-03-23T18:15:59.886Z,16.23
2019-03-23T18:18:28.428Z,17.10
2019-03-23T18:20:57.220Z,18.55
2019-03-23T18:23:26.088Z,17.73
2019-03-23T18:25:54.932Z,15.18
2019-03-23T18:28:23.761Z,15.32
2019-03-23T18:30:52.667Z,15.83
2019-03-23T18:33:21.526Z,16.32
2019-03-23T18:35:50.384Z,16.37
2019-03-23T18:38:19.181Z,17.17
2019-03-23T18:40:48.124Z,14.85
2019-03-23T18:43:27.084Z,14.60
2019-03-23T18:45:47.914Z,15.45
2019-03-23T18:48:16.949Z,14.95
2019-03-23T18:50:45.758Z,15.00
2019-03-23T18:53:14.562Z,16.77
2019-03-23T18:55:43.390Z,16.23
2019-03-23T18:58:12.168Z,17.87
2019-03-23T19:00:42.086Z,18.20
2019-03-23T19:03:11.042Z,19.32
2019-03-23T19:05:40.021Z,21.33
2019-03-23T19:08:09.014Z,20.10
2019-03-23T19:10:37.918Z,19.17
2019-03-23T19:13:06.840Z,20.92
2019-03-23T19:15:35.685Z,21.55
2019-03-23T19:18:05.025Z,21.23
2019-03-23T19:20:33.791Z,21.75
2019-03-23T19:23:02.589Z,22.35
2019-03-23T19:25:33.438Z,21.85
2019-03-23T19:28:02.233Z,22.73
2019-03-23T19:30:31.040Z,23.87
2019-03-23T19:32:59.837Z,23.62
2019-03-23T19:35:28.728Z,24.18
2019-03-23T19:37:58.045Z,24.20
2019-03-23T19:40:26.926Z,23.50
2019-03-23T19:42:55.762Z,25.10
2019-03-23T19:45:24.550Z,25.20
2019-03-23T19:47:53.413Z,26.60
2019-03-23T19:50:22.274Z,26.27
2019-03-23T19:52:51.075Z,26.37
2019-03-23T19:55:19.916Z,28.65
2019-03-23T19:57:48.719Z,29.77
2019-03-23T20:00:17.917Z,26.93
2019-03-23T20:02:46.805Z,27.45
2019-03-23T20:05:15.897Z,26.48
2019-03-23T20:07:44.692Z,27.93
2019-03-23T20:10:14.596Z,27.55
2019-03-23T20:12:43.345Z,29.42
2019-03-23T20:15:13.431Z,26.52
2019-03-23T20:17:42.399Z,27.60
2019-03-23T20:20:11.950Z,28.05
2019-03-23T20:22:40.757Z,28.07
2019-03-23T20:25:10.184Z,29.52
2019-03-23T20:27:38.977Z,29.57
2019-03-23T20:30:13.397Z,30.72
2019-03-23T20:32:42.144Z,32.08
2019-03-23T20:35:11.163Z,30.12
2019-03-23T20:37:39.952Z,28.30
2019-03-23T20:40:09.403Z,28.92
2019-03-23T20:42:38.275Z,29.65
2019-03-23T20:45:08.717Z,28.23
2019-03-23T20:47:40.467Z,31.95
2019-03-23T20:50:11.264Z,28.32
2019-03-23T20:52:41.446Z,29.05
2019-03-23T20:55:24.727Z,28.10
2019-03-23T20:57:54.248Z,23.47
2019-03-23T21:00:23.004Z,23.60
2019-03-23T21:02:51.783Z,22.37
2019-03-23T21:05:20.549Z,23.30
2019-03-23T21:07:49.294Z,23.30
2019-03-23T21:10:18.093Z,21.23
2019-03-23T21:12:47.279Z,23.05
2019-03-23T21:15:16.070Z,19.40
2019-03-23T21:17:51.263Z,21.60
2019-03-23T21:20:15.325Z,22.02
2019-03-23T21:22:44.174Z,21.87
2019-03-23T21:25:13.268Z,22.17
2019-03-23T21:27:42.041Z,22.25
2019-03-23T21:30:15.875Z,19.57
2019-03-23T21:32:44.658Z,21.45
2019-03-23T21:35:15.691Z,23.12
2019-03-23T21:37:44.104Z,21.50
2019-03-23T21:40:13.025Z,20.88
2019-03-23T21:42:41.815Z,23.12
2019-03-23T21:45:11.014Z,22.87
2019-03-23T21:47:39.882Z,22.55
2019-03-23T21:50:10.038Z,21.42
2019-03-23T21:52:38.915Z,22.45
2019-03-23T21:55:07.919Z,22.70
2019-03-23T21:57:36.770Z,22.37
2019-03-23T22:00:07.688Z,22.60
2019-03-23T22:02:36.540Z,22.05
2019-03-23T22:05:06.955Z,21.90
2019-03-23T22:07:36.021Z,23.20
2019-03-23T22:10:07.986Z,21.95
2019-03-23T22:12:36.928Z,22.62
2019-03-23T22:15:08.021Z,24.50
2019-03-23T22:17:36.805Z,24.60
2019-03-23T22:20:08.005Z,23.05
2019-03-23T22:22:36.818Z,23.70
2019-03-23T22:25:07.598Z,20.00
2019-03-23T22:27:37.569Z,20.85
2019-03-23T22:30:11.819Z,22.90
2019-03-23T22:32:40.592Z,25.32
2019-03-23T22:35:09.907Z,22.42
2019-03-23T22:37:38.707Z,24.57
2019-03-23T22:40:11.929Z,24.32
2019-03-23T22:42:40.773Z,23.73
2019-03-23T22:45:10.080Z,24.02
2019-03-23T22:47:38.966Z,24.37
2019-03-23T22:50:09.642Z,26.10
2019-03-23T22:52:38.449Z,25.15
2019-03-23T22:55:07.666Z,25.70
2019-03-23T22:57:36.481Z,26.95
2019-03-23T23:00:08.638Z,27.95
2019-03-23T23:02:37.475Z,28.55
2019-03-23T23:05:07.592Z,28.30
2019-03-23T23:07:36.401Z,27.25
2019-03-23T23:10:08.162Z,28.40
2019-03-23T23:12:36.953Z,28.55
2019-03-23T23:15:07.221Z,29.18
2019-03-23T23:17:36.076Z,29.20
2019-03-23T23:20:07.177Z,26.70
2019-03-23T23:22:36.045Z,26.00
2019-03-23T23:25:08.174Z,24.92
2019-03-23T23:27:37.279Z,24.95
2019-03-23T23:30:10.770Z,23.80
2019-03-23T23:32:39.524Z,25.37
2019-03-23T23:35:09.166Z,25.45
2019-03-23T23:37:37.982Z,25.05
2019-03-23T23:40:08.077Z,27.87
2019-03-23T23:42:36.814Z,26.60
2019-03-23T23:45:15.379Z,25.77
2019-03-23T23:47:40.996Z,24.82
2019-03-23T23:50:09.768Z,25.90
2019-03-23T23:52:38.527Z,26.55
2019-03-23T23:55:07.975Z,27.13
2019-03-23T23:57:36.734Z,26.10
